GW0819 Weather Reports


Display with metric or nautical units.
time (UTC)temp
F
wind
direction
speed
MPH
gust
MPH
rain 1hr
in
rain 24hr
in
rain mn
in
humidity
%
barometer
mb
20240413232800 80 263 20.0 23.0 0.00 0.00 0.00 10 1016.0
20240413232258 80 222 16.0 21.0 0.00 0.00 0.00 11 1015.5
20240413231756 80 229 25.0 28.0 0.00 0.00 0.00 9 1016.0
20240413231256 79 245 22.0 32.0 0.00 0.00 0.00 10 1016.0
20240413230754 81 246 12.0 20.0 0.00 0.00 0.00 11 1015.8
20240413230254 81 259 18.0 23.0 0.00 0.00 0.00 9 1016.2
20240413225752 81 260 7.0 20.0 0.00 0.00 0.00 11 1015.9
20240413225251 80 219 13.0 25.0 0.00 0.00 0.00 11 1015.8
20240413224749 81 247 21.0 23.0 0.00 0.00 0.00 10 1016.0
20240413224248 81 246 13.0 26.0 0.00 0.00 0.00 11 1016.2
20240413223747 81 265 6.0 15.0 0.00 0.00 0.00 11 1016.2
20240413223246 81 229 18.0 26.0 0.00 0.00 0.00 11 1015.9
20240413222745 81 259 23.0 30.0 0.00 0.00 0.00 10 1016.2
20240413222243 82 261 14.0 24.0 0.00 0.00 0.00 11 1016.5
20240413221742 82 256 15.0 19.0 0.00 0.00 0.00 11 1016.0
20240413221242 82 250 12.0 20.0 0.00 0.00 0.00 11 1015.9
20240413220740 81 247 16.0 23.0 0.00 0.00 0.00 10 1016.2
20240413220240 82 283 8.0 27.0 0.00 0.00 0.00 11 1016.2
20240413215738 82 250 19.0 21.0 0.00 0.00 0.00 11 1016.2
20240413215237 81 285 5.0 12.0 0.00 0.00 0.00 12 1016.4
20240413214735 82 272 11.0 22.0 0.00 0.00 0.00 13 1016.3
20240413214234 82 257 20.0 29.0 0.00 0.00 0.00 12 1016.3
20240413213734 81 268 8.0 23.0 0.00 0.00 0.00 12 1016.3
20240413213233 81 222 22.0 28.0 0.00 0.00 0.00 11 1016.5
20240413212732 81 247 16.0 17.0 0.00 0.00 0.00 13 1016.6
20240413212231 81 251 18.0 19.0 0.00 0.00 0.00 13 1016.6
20240413211730 81 265 19.0 23.0 0.00 0.00 0.00 13 1016.7
20240413211229 81 226 21.0 24.0 0.00 0.00 0.00 13 1016.7
20240413210729 80 310 2.0 10.0 0.00 0.00 0.00 16 1017.0
20240413210227 80 284 8.0 15.0 0.00 0.00 0.00 16 1017.0
20240413205725 80 258 13.0 21.0 0.00 0.00 0.00 13 1017.0
20240413205225 80 235 10.0 17.0 0.00 0.00 0.00 16 1016.8
20240413204724 80 269 8.0 15.0 0.00 0.00 0.00 14 1017.4
20240413204222 80 237 11.0 17.0 0.00 0.00 0.00 16 1017.4
20240413203722 80 232 19.0 20.0 0.00 0.00 0.00 15 1017.2
20240413203222 81 258 13.0 13.0 0.00 0.00 0.00 16 1017.4
20240413202721 80 232 9.0 14.0 0.00 0.00 0.00 16 1017.7
20240413202219 80 261 12.0 15.0 0.00 0.00 0.00 15 1017.7
20240413201717 79 301 11.0 15.0 0.00 0.00 0.00 14 1017.7
20240413201216 79 279 10.0 16.0 0.00 0.00 0.00 17 1017.6
20240413200716 79 234 18.0 22.0 0.00 0.00 0.00 14 1017.9
20240413200214 78 255 13.0 26.0 0.00 0.00 0.00 14 1018.1
20240413195713 78 243 11.0 27.0 0.00 0.00 0.00 15 1018.1
20240413195211 79 233 13.0 24.0 0.00 0.00 0.00 15 1018.1
20240413194709 80 250 13.0 18.0 0.00 0.00 0.00 14 1017.9
20240413194209 78 251 12.0 26.0 0.00 0.00 0.00 15 1018.0
20240413193708 80 256 10.0 17.0 0.00 0.00 0.00 15 1018.2
20240413193209 80 253 15.0 22.0 0.00 0.00 0.00 13 1018.3
20240413192707 79 275 8.0 15.0 0.00 0.00 0.00 17 1018.4
20240413192206 78 246 11.0 20.0 0.00 0.00 0.00 15 1018.5
20240413191705 79 288 5.0 10.0 0.00 0.00 0.00 17 1018.2
20240413191204 79 268 10.0 18.0 0.00 0.00 0.00 14 1018.2
20240413190703 78 247 13.0 21.0 0.00 0.00 0.00 15 1018.3
20240413190203 78 272 6.0 19.0 0.00 0.00 0.00 15 1018.3
20240413185702 78 277 15.0 16.0 0.00 0.00 0.00 17 1018.4
20240413185201 78 243 19.0 22.0 0.00 0.00 0.00 17 1018.5
20240413184700 77 242 13.0 22.0 0.00 0.00 0.00 17 1018.3
20240413184201 78 258 16.0 24.0 0.00 0.00 0.00 16 1018.8
20240413183700 78 305 9.0 17.0 0.00 0.00 0.00 17 1018.5
20240413183200 78 209 7.0 14.0 0.00 0.00 0.00 16 1018.8
20240413182700 78 252 7.0 17.0 0.00 0.00 0.00 19 1018.5
20240413182159 77 259 9.0 14.0 0.00 0.00 0.00 18 1018.9
20240413181658 78 273 8.0 19.0 0.00 0.00 0.00 17 1019.2
20240413181158 77 316 9.0 13.0 0.00 0.00 0.00 17 1019.1
20240413180656 78 251 14.0 17.0 0.00 0.00 0.00 18 1019.3
20240413180155 78 280 7.0 18.0 0.00 0.00 0.00 18 1019.2
20240413175653 77 252 16.0 24.0 0.00 0.00 0.00 19 1019.2
20240413175152 77 250 14.0 22.0 0.00 0.00 0.00 19 1019.4
20240413174651 78 260 11.0 14.0 0.00 0.00 0.00 19 1019.6
20240413174150 77 264 4.0 15.0 0.00 0.00 0.00 22 1019.3
20240413173649 77 278 3.0 17.0 0.00 0.00 0.00 22 1019.8
20240413173148 77 252 13.0 14.0 0.00 0.00 0.00 21 1019.6
20240413172647 76 251 14.0 21.0 0.00 0.00 0.00 20 1019.6
20240413172147 76 221 13.0 17.0 0.00 0.00 0.00 22 1019.4
20240413171644 77 243 15.0 25.0 0.00 0.00 0.00 23 1019.4
20240413171142 75 243 9.0 17.0 0.00 0.00 0.00 22 1019.7
20240413170640 75 241 13.0 17.0 0.00 0.00 0.00 23 1019.4
20240413170139 75 258 13.0 16.0 0.00 0.00 0.00 22 1019.7
20240413165638 75 253 11.0 15.0 0.00 0.00 0.00 22 1019.8
20240413165136 74 245 20.0 25.0 0.00 0.00 0.00 23 1019.7
20240413164635 73 253 12.0 20.0 0.00 0.00 0.00 24 1019.8
20240413164133 73 244 19.0 22.0 0.00 0.00 0.00 23 1020.0
20240413163632 73 242 20.0 21.0 0.00 0.00 0.00 24 1020.0
20240413163131 72 251 13.0 22.0 0.00 0.00 0.00 26 1019.8
20240413162630 72 257 14.0 20.0 0.00 0.00 0.00 24 1019.8
20240413162129 71 249 14.0 20.0 0.00 0.00 0.00 25 1020.1
20240413161628 72 247 16.0 20.0 0.00 0.00 0.00 24 1019.9
20240413161128 71 253 11.0 23.0 0.00 0.00 0.00 26 1020.2
20240413160627 70 255 17.0 22.0 0.00 0.00 0.00 26 1020.1
20240413160125 70 244 22.0 24.0 0.00 0.00 0.00 26 1019.9
20240413155624 70 240 15.0 23.0 0.00 0.00 0.00 29 1019.9
20240413155123 68 250 17.0 28.0 0.00 0.00 0.00 29 1020.0
20240413154623 68 240 13.0 25.0 0.00 0.00 0.00 30 1020.1
20240413154123 68 256 14.0 22.0 0.00 0.00 0.00 31 1020.2
20240413153620 68 238 12.0 18.0 0.00 0.00 0.00 33 1019.9
20240413153120 67 244 17.0 22.0 0.00 0.00 0.00 31 1019.8
20240413152619 67 255 13.0 17.0 0.00 0.00 0.00 32 1019.9
20240413152117 66 247 11.0 20.0 0.00 0.00 0.00 32 1019.9
20240413151616 66 251 15.0 21.0 0.00 0.00 0.00 31 1019.7
20240413151115 65 250 15.0 18.0 0.00 0.00 0.00 33 1019.8
20240413150614 65 259 14.0 19.0 0.00 0.00 0.00 34 1019.7
20240413150113 64 246 12.0 18.0 0.00 0.00 0.00 34 1020.0
20240413145611 63 245 17.0 24.0 0.00 0.00 0.00 34 1019.9
20240413145111 63 247 14.0 20.0 0.00 0.00 0.00 34 1019.9
20240413144610 63 258 10.0 22.0 0.00 0.00 0.00 36 1019.7
20240413144108 62 276 5.0 20.0 0.00 0.00 0.00 37 1019.8
20240413143606 62 257 9.0 16.0 0.00 0.00 0.00 36 1019.7
20240413143106 62 297 7.0 20.0 0.00 0.00 0.00 36 1020.0
20240413142604 61 244 11.0 17.0 0.00 0.00 0.00 37 1019.9
20240413142102 61 256 5.0 15.0 0.00 0.00 0.00 38 1019.8
20240413141601 61 237 10.0 12.0 0.00 0.00 0.00 37 1019.8
20240413141101 60 241 10.0 18.0 0.00 0.00 0.00 38 1019.9
20240413140559 60 253 9.0 15.0 0.00 0.00 0.00 38 1019.8
20240413140059 59 237 8.0 13.0 0.00 0.00 0.00 40 1020.0
20240413135559 59 237 9.0 11.0 0.00 0.00 0.00 40 1020.0
20240413135057 58 238 6.0 9.0 0.00 0.00 0.00 41 1020.0
20240413134555 57 255 7.0 9.0 0.00 0.00 0.00 42 1020.2
20240413134053 56 232 3.0 5.0 0.00 0.00 0.00 45 1019.9
20240413133552 55 232 4.0 6.0 0.00 0.00 0.00 47 1019.9
20240413133051 55 242 3.0 5.0 0.00 0.00 0.00 47 1019.7
20240413132550 54 254 3.0 7.0 0.00 0.00 0.00 48 1019.7
20240413132049 53 215 5.0 6.0 0.00 0.00 0.00 49 1019.9
20240413131547 52 215 4.0 6.0 0.00 0.00 0.00 54 1019.7
20240413131046 51 253 4.0 5.0 0.00 0.00 0.00 55 1019.8
20240413130544 50 234 5.0 5.0 0.00 0.00 0.00 53 1020.0
20240413130044 50 230 6.0 6.0 0.00 0.00 0.00 53 1019.8
20240413125542 50 248 2.0 3.0 0.00 0.00 0.00 50 1019.8
20240413125041 49 273 2.0 2.0 0.00 0.00 0.00 52 1019.7
20240413124538 49 2 0.0 1.0 0.00 0.00 0.00 51 1019.8
20240413124038 50 248 2.0 3.0 0.00 0.00 0.00 50 1019.7
20240413123537 49 301 2.0 2.0 0.00 0.00 0.00 50 1019.6
20240413123036 48 289 2.0 2.0 0.00 0.00 0.00 51 1019.6
20240413122534 49 171 2.0 2.0 0.00 0.00 0.00 50 1019.4
20240413122034 50 233 2.0 3.0 0.00 0.00 0.00 49 1019.6
20240413121534 50 242 1.0 3.0 0.00 0.00 0.00 48 1019.6
20240413121032 50 288 2.0 3.0 0.00 0.00 0.00 48 1019.2
20240413120530 50 210 2.0 3.0 0.00 0.00 0.00 47 1019.2
20240413120029 50 192 5.0 5.0 0.00 0.00 0.00 47 1019.1
20240413115526 50 186 5.0 6.0 0.00 0.00 0.00 48 1019.3
20240413115024 50 187 7.0 7.0 0.00 0.00 0.00 47 1019.2
20240413114523 51 186 5.0 5.0 0.00 0.00 0.00 46 1019.2
20240413114023 51 183 4.0 5.0 0.00 0.00 0.00 45 1019.2
20240413113521 52 210 4.0 5.0 0.00 0.00 0.00 43 1019.3
20240413113020 52 200 5.0 6.0 0.00 0.00 0.00 43 1019.1
20240413112520 52 238 3.0 4.0 0.00 0.00 0.00 44 1019.2
20240413112019 51 253 1.0 3.0 0.00 0.00 0.00 46 1019.2
20240413111518 51 251 4.0 5.0 0.00 0.00 0.00 46 1019.3
20240413111017 51 235 4.0 5.0 0.00 0.00 0.00 47 1019.3
20240413110517 51 220 5.0 8.0 0.00 0.00 0.00 46 1019.3
20240413110017 50 227 7.0 8.0 0.00 0.00 0.00 46 1019.3
20240413105515 50 217 6.0 10.0 0.00 0.00 0.00 47 1019.2
20240413105014 50 226 7.0 11.0 0.00 0.00 0.00 45 1019.3
20240413104513 50 207 5.0 9.0 0.00 0.00 0.00 45 1019.7
20240413104011 50 216 7.0 10.0 0.00 0.00 0.00 45 1019.2
20240413103509 50 217 8.0 11.0 0.00 0.00 0.00 45 1019.3
20240413103009 50 207 6.0 9.0 0.00 0.00 0.00 45 1019.4
20240413102508 50 223 7.0 9.0 0.00 0.00 0.00 45 1019.3
20240413102008 50 221 7.0 7.0 0.00 0.00 0.00 44 1019.4
20240413101507 50 207 5.0 6.0 0.00 0.00 0.00 45 1019.7
20240413101007 50 207 5.0 6.0 0.00 0.00 0.00 45 1019.6
20240413100506 50 212 5.0 7.0 0.00 0.00 0.00 45 1019.4
20240413100005 50 206 5.0 6.0 0.00 0.00 0.00 45 1019.7
20240413095504 50 215 6.0 7.0 0.00 0.00 0.00 45 1019.3
20240413095003 50 197 6.0 7.0 0.00 0.00 0.00 44 1019.4
20240413094501 50 204 5.0 7.0 0.00 0.00 0.00 47 1019.4
20240413094001 50 217 7.0 7.0 0.00 0.00 0.00 44 1019.7
20240413093501 50 209 4.0 6.0 0.00 0.00 0.00 47 1019.4
20240413093001 50 193 5.0 7.0 0.00 0.00 0.00 46 1019.4
20240413092501 50 213 5.0 7.0 0.00 0.00 0.00 46 1019.6
20240413091959 50 195 6.0 9.0 0.00 0.00 0.00 48 1019.4
20240413091459 50 193 6.0 7.0 0.00 0.00 0.00 48 1019.7
20240413090959 50 194 5.0 7.0 0.00 0.00 0.00 47 1019.7
20240413090458 50 179 7.0 9.0 0.00 0.00 0.00 46 1019.7
20240413085958 50 197 4.0 5.0 0.00 0.00 0.00 46 1020.0
20240413085457 51 191 5.0 6.0 0.00 0.00 0.00 45 1019.9
20240413084955 51 199 6.0 7.0 0.00 0.00 0.00 43 1019.9
20240413084453 51 215 5.0 6.0 0.00 0.00 0.00 44 1019.7
20240413083952 51 213 5.0 6.0 0.00 0.00 0.00 43 1019.7
20240413083451 51 210 4.0 5.0 0.00 0.00 0.00 45 1019.9
20240413082950 51 202 3.0 6.0 0.00 0.00 0.00 44 1019.8
20240413082448 51 194 3.0 4.0 0.00 0.00 0.00 46 1019.6
20240413081947 50 198 3.0 4.0 0.00 0.00 0.00 46 1019.7
20240413081445 50 185 4.0 5.0 0.00 0.00 0.00 47 1019.8
20240413080943 51 188 4.0 6.0 0.00 0.00 0.00 46 1019.9
20240413080444 51 194 4.0 6.0 0.00 0.00 0.00 46 1019.8
20240413075942 51 192 6.0 7.0 0.00 0.00 0.00 47 1020.1
20240413075441 51 194 7.0 7.0 0.00 0.00 0.00 47 1019.8
20240413074940 51 178 4.0 7.0 0.00 0.00 0.00 46 1020.2
20240413074440 51 182 6.0 7.0 0.00 0.00 0.00 45 1019.9
20240413073938 52 180 5.0 6.0 0.00 0.00 0.00 45 1019.9
20240413073437 51 164 2.0 5.0 0.00 0.00 0.00 46 1020.1
20240413072937 51 130 3.0 3.0 0.00 0.00 0.00 47 1020.0
20240413072437 51 122 3.0 4.0 0.00 0.00 0.00 47 1020.1
20240413071935 51 140 4.0 5.0 0.00 0.00 0.00 46 1020.0
20240413071434 52 154 5.0 7.0 0.00 0.00 0.00 46 1020.1
20240413070933 52 153 5.0 7.0 0.00 0.00 0.00 45 1020.2
20240413070432 53 176 6.0 7.0 0.00 0.00 0.00 43 1020.4
20240413065930 53 183 5.0 7.0 0.00 0.00 0.00 42 1020.4
20240413065430 53 182 5.0 8.0 0.00 0.00 0.00 43 1020.5
20240413064929 53 196 4.0 9.0 0.00 0.00 0.00 43 1020.4
20240413064427 53 232 0.0 10.0 0.00 0.00 0.00 43 1020.6
20240413063926 53 187 3.0 5.0 0.00 0.00 0.00 45 1020.5
20240413063423 53 179 2.0 4.0 0.00 0.00 0.00 44 1020.7
20240413062922 53 175 4.0 6.0 0.00 0.00 0.00 44 1020.7
20240413062420 53 199 4.0 7.0 0.00 0.00 0.00 44 1020.8
20240413061918 54 191 5.0 7.0 0.00 0.00 0.00 42 1020.7
20240413061416 54 202 6.0 7.0 0.00 0.00 0.00 43 1020.7
20240413060914 53 191 4.0 5.0 0.00 0.00 0.00 44 1020.6
20240413060413 53 194 5.0 7.0 0.00 0.00 0.00 45 1020.6
20240413055912 53 190 3.0 7.0 0.00 0.00 0.00 45 1020.6
20240413055411 53 184 6.0 8.0 0.00 0.00 0.00 45 1020.8
20240413054910 53 180 4.0 7.0 0.00 0.00 0.00 46 1020.6
20240413054410 53 177 6.0 6.0 0.00 0.00 0.00 45 1020.8
20240413053908 53 173 4.0 6.0 0.00 0.00 0.00 44 1020.8
20240413053408 54 171 3.0 6.0 0.00 0.00 0.00 44 1020.5
20240413052907 54 161 5.0 7.0 0.00 0.00 0.00 43 1020.9
20240413052405 54 166 6.0 8.0 0.00 0.00 0.00 43 1020.8
20240413051904 54 151 7.0 7.0 0.00 0.00 0.00 43 1020.8
20240413051403 54 156 5.0 7.0 0.00 0.00 0.00 43 1020.6
20240413050902 54 149 4.0 6.0 0.00 0.00 0.00 42 1020.9
20240413050402 55 152 5.0 7.0 0.00 0.00 0.00 42 1021.0
20240413045901 55 146 5.0 7.0 0.00 0.00 0.00 42 1020.7
20240413045359 56 155 8.0 10.0 0.00 0.00 0.00 40 1020.8
20240413044858 56 162 7.0 10.0 0.00 0.00 0.00 40 1020.6
20240413044356 56 160 9.0 11.0 0.00 0.00 0.00 38 1020.9
20240413043854 57 180 9.0 11.0 0.00 0.00 0.00 38 1020.7
20240413043353 57 171 9.0 12.0 0.00 0.00 0.00 38 1021.3
20240413042852 57 172 8.0 13.0 0.00 0.00 0.00 38 1020.8
20240413042350 57 178 10.0 12.0 0.00 0.00 0.00 38 1020.8
20240413041849 57 163 7.0 11.0 0.00 0.00 0.00 39 1020.7
20240413041348 57 186 11.0 12.0 0.00 0.00 0.00 37 1020.8
20240413040847 57 164 9.0 14.0 0.00 0.00 0.00 37 1020.8
20240413040347 57 165 8.0 11.0 0.00 0.00 0.00 38 1020.6
20240413035846 57 169 9.0 11.0 0.00 0.00 0.00 37 1021.0
20240413035347 58 160 9.0 12.0 0.00 0.00 0.00 36 1020.8
20240413034846 59 175 10.0 13.0 0.00 0.00 0.00 35 1020.9
20240413034345 58 151 13.0 14.0 0.00 0.00 0.00 35 1020.7
20240413033843 59 156 10.0 16.0 0.00 0.00 0.00 35 1020.7
20240413033341 60 174 12.0 15.0 0.00 0.00 0.00 33 1020.7
20240413032840 60 165 13.0 19.0 0.00 0.00 0.00 33 1020.8
20240413032340 60 159 12.0 17.0 0.00 0.00 0.00 32 1020.5
20240413031840 61 161 17.0 17.0 0.00 0.00 0.00 31 1020.8
20240413031340 62 166 19.0 20.0 0.00 0.00 0.00 30 1020.5
20240413030840 63 162 15.0 19.0 0.00 0.00 0.00 28 1020.5
20240413030339 63 156 13.0 20.0 0.00 0.00 0.00 28 1020.2
20240413025838 64 160 17.0 20.0 0.00 0.00 0.00 27 1020.4
20240413025336 64 180 15.0 20.0 0.00 0.00 0.00 27 1020.1
20240413024835 64 173 12.0 20.0 0.00 0.00 0.00 28 1020.2
20240413024333 64 179 13.0 21.0 0.00 0.00 0.00 28 1020.2
20240413023832 63 170 16.0 19.0 0.00 0.00 0.00 29 1020.2
20240413023331 61 153 9.0 12.0 0.00 0.00 0.00 32 1020.1
20240413022829 62 145 10.0 11.0 0.00 0.00 0.00 31 1020.0
20240413022327 63 152 12.0 16.0 0.00 0.00 0.00 29 1020.0
20240413021827 63 162 11.0 15.0 0.00 0.00 0.00 28 1019.7
20240413021326 64 175 10.0 14.0 0.00 0.00 0.00 28 1019.6
20240413020826 64 166 13.0 16.0 0.00 0.00 0.00 28 1019.7
20240413020326 65 181 12.0 17.0 0.00 0.00 0.00 28 1019.6
20240413015826 64 180 12.0 14.0 0.00 0.00 0.00 28 1019.6
20240413015325 65 155 10.0 15.0 0.00 0.00 0.00 28 1019.3
20240413014823 66 168 9.0 17.0 0.00 0.00 0.00 28 1019.2
20240413014322 65 175 9.0 17.0 0.00 0.00 0.00 29 1019.4
20240413013821 65 174 6.0 13.0 0.00 0.00 0.00 29 1019.3
20240413013320 66 171 8.0 11.0 0.00 0.00 0.00 28 1019.3
20240413012819 67 168 9.0 14.0 0.00 0.00 0.00 27 1019.1
20240413012317 68 177 8.0 13.0 0.00 0.00 0.00 26 1019.0
20240413011815 69 171 10.0 13.0 0.00 0.00 0.00 24 1019.1
20240413011315 70 185 11.0 15.0 0.00 0.00 0.00 23 1019.0
20240413010815 71 189 15.0 15.0 0.00 0.00 0.00 21 1019.1
20240413010314 72 198 11.0 20.0 0.00 0.00 0.00 20 1018.8
20240413005813 73 194 12.0 18.0 0.00 0.00 0.00 19 1018.9
20240413005312 73 193 9.0 17.0 0.00 0.00 0.00 20 1019.0
20240413004811 73 194 11.0 14.0 0.00 0.00 0.00 19 1019.0
20240413004311 74 186 13.0 18.0 0.00 0.00 0.00 19 1018.9
20240413003810 75 192 14.0 17.0 0.00 0.00 0.00 18 1019.0
20240413003310 75 187 11.0 17.0 0.00 0.00 0.00 19 1018.8
20240413002808 76 191 14.0 20.0 0.00 0.00 0.00 18 1018.8
20240413002307 76 185 16.0 23.0 0.00 0.00 0.00 17 1018.5
20240413001806 76 192 13.0 22.0 0.00 0.00 0.00 17 1018.7
20240413001304 77 196 15.0 21.0 0.00 0.00 0.00 16 1018.8
20240413000803 77 185 12.0 23.0 0.00 0.00 0.00 16 1018.8
20240413000302 77 190 21.0 23.0 0.00 0.00 0.00 15 1018.9
20240412235801 78 191 17.0 22.0 0.00 0.00 0.00 14 1018.9
20240412235300 78 202 20.0 23.0 0.00 0.00 0.00 15 1018.9
20240412234759 78 182 16.0 23.0 0.00 0.00 0.00 15 1018.9
20240412234257 78 188 15.0 26.0 0.00 0.00 0.00 14 1018.9
20240412233756 78 188 18.0 22.0 0.00 0.00 0.00 14 1019.0
20240412233254 78 189 15.0 21.0 0.00 0.00 0.00 15 1018.8